Buckhart, Illinois
Current Conditions -  °F | °C
As of 6:52 AM on Saturday 25 Oct 2014 (Local Time) from KSPI Reporting Station
Haze Haze  
Wind Chill: 58°   Ceiling: 1100
Heat Index: 58°   Visibility: 6mi
Dew Point: 56°   Wind: 3mph
Humidity: 93%   Direction: 250°WSW
Pressure: 30"   Gusts: NA
Location:  39.7312°N, 89.5322°W
Report Text: KSPI 251152Z 25003KT 6SM BR OVC011 14/13 A3000 RMK AO2 SLP159 T01440133 10167 20111 51010
Loading
Personal Weather Stations






























Interactive Weather Map
Tropical Storm Tracking
New forecast layout! Learn more

10-Day Weather Forecast

Advertisements
Track Severe Weather on mobile